sensor_id;sensor_type;location;lat;lon;timestamp;temperature;humidity
33149;DHT22;19506;51.040;3.856;2023-07-20T13:25:22;23.00;99.90
33149;DHT22;19506;51.040;3.856;2023-07-20T13:27:48;22.80;99.90
33149;DHT22;19506;51.040;3.856;2023-07-20T13:30:13;22.80;99.90
33149;DHT22;19506;51.040;3.856;2023-07-20T13:32:43;22.60;99.90
33149;DHT22;19506;51.040;3.856;2023-07-20T13:37:36;22.80;99.90
33149;DHT22;19506;51.040;3.856;2023-07-20T13:40:01;23.00;99.90
33149;DHT22;19506;51.040;3.856;2023-07-20T13:42:30;22.70;99.90
33149;DHT22;19506;51.040;3.856;2023-07-20T13:44:55;22.70;99.90
33149;DHT22;19506;51.040;3.856;2023-07-20T13:47:21;22.70;99.90
33149;DHT22;19506;51.040;3.856;2023-07-20T13:49:47;22.60;99.90
33149;DHT22;19506;51.040;3.856;2023-07-20T13:52:12;22.60;99.90
33149;DHT22;19506;51.040;3.856;2023-07-20T13:54:38;22.70;99.90
33149;DHT22;19506;51.040;3.856;2023-07-20T14:00:25;22.60;99.90
33149;DHT22;19506;51.040;3.856;2023-07-20T14:02:56;22.70;99.90
33149;DHT22;19506;51.040;3.856;2023-07-20T14:05:21;22.70;99.90
33149;DHT22;19506;51.040;3.856;2023-07-20T14:07:47;22.90;99.90
33149;DHT22;19506;51.040;3.856;2023-07-20T14:10:12;22.90;99.90
33149;DHT22;19506;51.040;3.856;2023-07-20T14:12:38;23.10;99.90
33149;DHT22;19506;51.040;3.856;2023-07-20T14:15:04;23.00;99.90
33149;DHT22;19506;51.040;3.856;2023-07-20T14:17:30;23.00;99.90
33149;DHT22;19506;51.040;3.856;2023-07-20T14:19:55;22.90;99.90
33149;DHT22;19506;51.040;3.856;2023-07-20T14:22:21;22.90;99.90
33149;DHT22;19506;51.040;3.856;2023-07-20T14:24:47;23.10;99.90
33149;DHT22;19506;51.040;3.856;2023-07-20T14:27:12;23.50;99.90
33149;DHT22;19506;51.040;3.856;2023-07-20T14:29:38;23.50;99.90
33149;DHT22;19506;51.040;3.856;2023-07-20T14:32:04;23.60;99.90
33149;DHT22;19506;51.040;3.856;2023-07-20T14:34:31;23.70;99.90
33149;DHT22;19506;51.040;3.856;2023-07-20T14:36:59;23.70;99.90
33149;DHT22;19506;51.040;3.856;2023-07-20T14:39:25;23.90;99.90
33149;DHT22;19506;51.040;3.856;2023-07-20T14:41:51;23.70;99.90
33149;DHT22;19506;51.040;3.856;2023-07-20T14:46:43;23.80;99.90
33149;DHT22;19506;51.040;3.856;2023-07-20T14:49:08;23.90;99.90
33149;DHT22;19506;51.040;3.856;2023-07-20T14:51:36;23.80;99.90
33149;DHT22;19506;51.040;3.856;2023-07-20T14:54:08;23.60;99.90
33149;DHT22;19506;51.040;3.856;2023-07-20T14:56:34;23.70;99.90
33149;DHT22;19506;51.040;3.856;2023-07-20T14:58:59;23.80;99.90
33149;DHT22;19506;51.040;3.856;2023-07-20T15:01:26;23.80;99.90
33149;DHT22;19506;51.040;3.856;2023-07-20T15:03:51;23.90;99.90
33149;DHT22;19506;51.040;3.856;2023-07-20T15:06:19;23.90;99.90
33149;DHT22;19506;51.040;3.856;2023-07-20T15:08:45;23.50;99.90
33149;DHT22;19506;51.040;3.856;2023-07-20T15:11:10;23.50;99.90
33149;DHT22;19506;51.040;3.856;2023-07-20T15:13:36;23.00;99.90
33149;DHT22;19506;51.040;3.856;2023-07-20T15:16:02;23.00;99.90
33149;DHT22;19506;51.040;3.856;2023-07-20T15:18:27;23.00;99.90
33149;DHT22;19506;51.040;3.856;2023-07-20T15:20:53;22.70;99.90
33149;DHT22;19506;51.040;3.856;2023-07-20T15:23:19;22.90;99.90
33149;DHT22;19506;51.040;3.856;2023-07-20T15:25:45;22.80;99.90
33149;DHT22;19506;51.040;3.856;2023-07-20T15:28:11;22.50;99.90
33149;DHT22;19506;51.040;3.856;2023-07-20T15:30:37;22.40;99.90
33149;DHT22;19506;51.040;3.856;2023-07-20T15:33:03;22.40;99.90
33149;DHT22;19506;51.040;3.856;2023-07-20T15:35:28;23.10;99.90
33149;DHT22;19506;51.040;3.856;2023-07-20T15:37:54;22.90;99.90
33149;DHT22;19506;51.040;3.856;2023-07-20T15:40:20;22.90;99.90
33149;DHT22;19506;51.040;3.856;2023-07-20T15:42:45;22.80;99.90
33149;DHT22;19506;51.040;3.856;2023-07-20T15:47:38;22.70;99.90
33149;DHT22;19506;51.040;3.856;2023-07-20T15:50:05;23.00;99.90
33149;DHT22;19506;51.040;3.856;2023-07-20T15:52:31;23.20;99.90
33149;DHT22;19506;51.040;3.856;2023-07-20T15:54:57;23.50;99.90
33149;DHT22;19506;51.040;3.856;2023-07-20T15:57:26;23.50;99.90
33149;DHT22;19506;51.040;3.856;2023-07-20T15:59:51;23.30;99.90
33149;DHT22;19506;51.040;3.856;2023-07-20T16:02:17;23.30;99.90
33149;DHT22;19506;51.040;3.856;2023-07-20T16:04:43;23.50;99.90
33149;DHT22;19506;51.040;3.856;2023-07-20T16:07:11;23.20;99.90
33149;DHT22;19506;51.040;3.856;2023-07-20T16:09:37;23.00;99.90
33149;DHT22;19506;51.040;3.856;2023-07-20T16:12:05;22.90;99.90
33149;DHT22;19506;51.040;3.856;2023-07-20T16:14:31;22.90;99.90
33149;DHT22;19506;51.040;3.856;2023-07-20T16:16:56;22.80;99.90
33149;DHT22;19506;51.040;3.856;2023-07-20T16:19:22;22.80;99.90
33149;DHT22;19506;51.040;3.856;2023-07-20T16:21:48;23.00;99.90
33149;DHT22;19506;51.040;3.856;2023-07-20T16:24:13;23.10;99.90
33149;DHT22;19506;51.040;3.856;2023-07-20T16:26:39;23.30;99.90
33149;DHT22;19506;51.040;3.856;2023-07-20T16:29:12;23.20;99.90
33149;DHT22;19506;51.040;3.856;2023-07-20T16:31:38;22.90;99.90
33149;DHT22;19506;51.040;3.856;2023-07-20T16:34:03;23.00;99.90
33149;DHT22;19506;51.040;3.856;2023-07-20T16:36:29;22.90;99.90
33149;DHT22;19506;51.040;3.856;2023-07-20T16:38:57;22.80;99.90
33149;DHT22;19506;51.040;3.856;2023-07-20T16:41:23;22.80;99.90
33149;DHT22;19506;51.040;3.856;2023-07-20T16:43:49;22.90;99.90
33149;DHT22;19506;51.040;3.856;2023-07-20T16:49:41;22.90;99.90
33149;DHT22;19506;51.040;3.856;2023-07-20T16:52:26;23.10;99.90
33149;DHT22;19506;51.040;3.856;2023-07-20T16:54:52;23.20;99.90
33149;DHT22;19506;51.040;3.856;2023-07-20T16:57:17;23.40;99.90
33149;DHT22;19506;51.040;3.856;2023-07-20T16:59:44;23.50;99.90
33149;DHT22;19506;51.040;3.856;2023-07-20T17:02:10;23.40;99.90
33149;DHT22;19506;51.040;3.856;2023-07-20T17:04:36;23.40;99.90
33149;DHT22;19506;51.040;3.856;2023-07-20T17:07:02;23.50;99.90
33149;DHT22;19506;51.040;3.856;2023-07-20T17:09:29;23.50;99.90
33149;DHT22;19506;51.040;3.856;2023-07-20T17:11:57;23.50;99.90
33149;DHT22;19506;51.040;3.856;2023-07-20T17:14:23;23.50;99.90
33149;DHT22;19506;51.040;3.856;2023-07-20T17:16:49;23.60;99.90
33149;DHT22;19506;51.040;3.856;2023-07-20T17:19:15;23.70;99.90
33149;DHT22;19506;51.040;3.856;2023-07-20T17:21:40;23.60;99.90
33149;DHT22;19506;51.040;3.856;2023-07-20T17:24:06;23.50;99.90
33149;DHT22;19506;51.040;3.856;2023-07-20T17:26:32;23.60;99.90
33149;DHT22;19506;51.040;3.856;2023-07-20T17:28:58;23.70;99.90
33149;DHT22;19506;51.040;3.856;2023-07-20T17:31:24;23.60;99.90
33149;DHT22;19506;51.040;3.856;2023-07-20T17:33:54;23.50;99.90
33149;DHT22;19506;51.040;3.856;2023-07-20T17:36:20;23.60;99.90
33149;DHT22;19506;51.040;3.856;2023-07-20T17:38:47;23.50;99.90
33149;DHT22;19506;51.040;3.856;2023-07-20T17:41:13;23.60;99.90
33149;DHT22;19506;51.040;3.856;2023-07-20T17:43:39;23.70;99.90
33149;DHT22;19506;51.040;3.856;2023-07-20T17:46:05;23.60;99.90
33149;DHT22;19506;51.040;3.856;2023-07-20T17:48:31;23.70;99.90
33149;DHT22;19506;51.040;3.856;2023-07-20T17:50:57;23.60;99.90
33149;DHT22;19506;51.040;3.856;2023-07-20T17:53:23;23.60;99.90
33149;DHT22;19506;51.040;3.856;2023-07-20T17:55:48;23.20;99.90
33149;DHT22;19506;51.040;3.856;2023-07-20T17:58:14;23.20;99.90
33149;DHT22;19506;51.040;3.856;2023-07-20T18:00:40;23.30;99.90
33149;DHT22;19506;51.040;3.856;2023-07-20T18:03:05;23.50;99.90
33149;DHT22;19506;51.040;3.856;2023-07-20T18:05:31;23.50;99.90
33149;DHT22;19506;51.040;3.856;2023-07-20T18:07:57;23.40;99.90
33149;DHT22;19506;51.040;3.856;2023-07-20T18:10:23;23.50;99.90
33149;DHT22;19506;51.040;3.856;2023-07-20T18:12:49;23.60;99.90
33149;DHT22;19506;51.040;3.856;2023-07-20T18:15:15;23.60;99.90
33149;DHT22;19506;51.040;3.856;2023-07-20T18:17:40;23.80;99.90
33149;DHT22;19506;51.040;3.856;2023-07-20T18:20:07;23.50;99.90
33149;DHT22;19506;51.040;3.856;2023-07-20T18:22:34;23.30;99.90
33149;DHT22;19506;51.040;3.856;2023-07-20T18:25:00;23.30;99.90
33149;DHT22;19506;51.040;3.856;2023-07-20T18:27:26;23.60;99.90
33149;DHT22;19506;51.040;3.856;2023-07-20T18:29:53;23.60;99.90
33149;DHT22;19506;51.040;3.856;2023-07-20T18:32:19;23.70;99.90
33149;DHT22;19506;51.040;3.856;2023-07-20T18:34:45;23.60;99.90
33149;DHT22;19506;51.040;3.856;2023-07-20T18:37:10;23.60;99.90
33149;DHT22;19506;51.040;3.856;2023-07-20T18:39:37;23.30;99.90
33149;DHT22;19506;51.040;3.856;2023-07-20T18:42:03;23.30;99.90
33149;DHT22;19506;51.040;3.856;2023-07-20T18:44:29;23.00;99.90
33149;DHT22;19506;51.040;3.856;2023-07-20T18:46:55;22.80;99.90
33149;DHT22;19506;51.040;3.856;2023-07-20T18:49:24;22.50;99.90
33149;DHT22;19506;51.040;3.856;2023-07-20T18:51:52;22.10;99.90
33149;DHT22;19506;51.040;3.856;2023-07-20T18:54:17;22.00;99.90
33149;DHT22;19506;51.040;3.856;2023-07-20T18:56:43;21.90;99.90
33149;DHT22;19506;51.040;3.856;2023-07-20T18:59:09;22.00;99.90
33149;DHT22;19506;51.040;3.856;2023-07-20T19:01:35;22.50;99.90
33149;DHT22;19506;51.040;3.856;2023-07-20T19:04:00;22.80;99.90
33149;DHT22;19506;51.040;3.856;2023-07-20T19:06:27;22.40;99.90
33149;DHT22;19506;51.040;3.856;2023-07-20T19:08:52;22.70;99.90
33149;DHT22;19506;51.040;3.856;2023-07-20T19:11:18;22.40;99.90
33149;DHT22;19506;51.040;3.856;2023-07-20T19:16:12;21.40;99.90
33149;DHT22;19506;51.040;3.856;2023-07-20T19:18:37;21.40;99.90
33149;DHT22;19506;51.040;3.856;2023-07-20T19:21:04;21.80;99.90
33149;DHT22;19506;51.040;3.856;2023-07-20T19:23:31;22.20;99.90
33149;DHT22;19506;51.040;3.856;2023-07-20T19:26:08;22.70;99.90
33149;DHT22;19506;51.040;3.856;2023-07-20T19:28:35;22.50;99.90
33149;DHT22;19506;51.040;3.856;2023-07-20T19:31:05;21.60;99.90
33149;DHT22;19506;51.040;3.856;2023-07-20T19:33:31;21.60;99.90
33149;DHT22;19506;51.040;3.856;2023-07-20T19:35:56;22.20;99.90
33149;DHT22;19506;51.040;3.856;2023-07-20T19:38:24;22.30;99.90
33149;DHT22;19506;51.040;3.856;2023-07-20T19:40:50;22.90;99.90
33149;DHT22;19506;51.040;3.856;2023-07-20T19:43:16;22.30;99.90
33149;DHT22;19506;51.040;3.856;2023-07-20T19:45:42;21.70;99.90
33149;DHT22;19506;51.040;3.856;2023-07-20T19:48:08;21.60;99.90
33149;DHT22;19506;51.040;3.856;2023-07-20T19:50:34;21.40;99.90
33149;DHT22;19506;51.040;3.856;2023-07-20T19:53:01;21.40;99.90
33149;DHT22;19506;51.040;3.856;2023-07-20T19:55:27;21.40;99.90
33149;DHT22;19506;51.040;3.856;2023-07-20T19:57:53;21.20;99.90
33149;DHT22;19506;51.040;3.856;2023-07-20T20:00:20;21.50;99.90
33149;DHT22;19506;51.040;3.856;2023-07-20T20:02:46;22.20;99.90
33149;DHT22;19506;51.040;3.856;2023-07-20T20:05:12;22.60;99.90
33149;DHT22;19506;51.040;3.856;2023-07-20T20:07:40;22.40;99.90
33149;DHT22;19506;51.040;3.856;2023-07-20T20:10:07;21.90;99.90
33149;DHT22;19506;51.040;3.856;2023-07-20T20:12:33;21.80;99.90
33149;DHT22;19506;51.040;3.856;2023-07-20T20:14:59;21.80;99.90
33149;DHT22;19506;51.040;3.856;2023-07-20T20:17:26;21.30;99.90
33149;DHT22;19506;51.040;3.856;2023-07-20T20:19:51;21.40;99.90
33149;DHT22;19506;51.040;3.856;2023-07-20T20:22:17;21.40;99.90
33149;DHT22;19506;51.040;3.856;2023-07-20T20:24:43;21.30;99.90
33149;DHT22;19506;51.040;3.856;2023-07-20T20:27:09;21.30;99.90
33149;DHT22;19506;51.040;3.856;2023-07-20T20:32:02;21.30;99.90
33149;DHT22;19506;51.040;3.856;2023-07-20T20:34:30;21.30;99.90
33149;DHT22;19506;51.040;3.856;2023-07-20T20:36:55;21.30;99.90
33149;DHT22;19506;51.040;3.856;2023-07-20T20:39:25;21.40;99.90
33149;DHT22;19506;51.040;3.856;2023-07-20T20:41:51;21.40;99.90
33149;DHT22;19506;51.040;3.856;2023-07-20T20:44:17;21.40;99.90
33149;DHT22;19506;51.040;3.856;2023-07-20T20:46:48;21.30;99.90
33149;DHT22;19506;51.040;3.856;2023-07-20T20:49:14;21.40;99.90
33149;DHT22;19506;51.040;3.856;2023-07-20T20:51:41;21.40;99.90
33149;DHT22;19506;51.040;3.856;2023-07-20T20:54:10;21.50;99.90
33149;DHT22;19506;51.040;3.856;2023-07-20T20:56:37;21.40;99.90
33149;DHT22;19506;51.040;3.856;2023-07-20T20:59:03;21.30;99.90
33149;DHT22;19506;51.040;3.856;2023-07-20T21:01:29;21.30;99.90
33149;DHT22;19506;51.040;3.856;2023-07-20T21:03:54;21.30;99.90
33149;DHT22;19506;51.040;3.856;2023-07-20T21:06:20;21.30;99.90
33149;DHT22;19506;51.040;3.856;2023-07-20T21:08:47;21.30;99.90
33149;DHT22;19506;51.040;3.856;2023-07-20T21:11:12;21.30;99.90
33149;DHT22;19506;51.040;3.856;2023-07-20T21:13:38;21.30;99.90
33149;DHT22;19506;51.040;3.856;2023-07-20T21:16:04;21.30;99.90
33149;DHT22;19506;51.040;3.856;2023-07-20T21:18:30;21.30;99.90
33149;DHT22;19506;51.040;3.856;2023-07-20T21:20:55;21.40;99.90
33149;DHT22;19506;51.040;3.856;2023-07-20T21:23:21;21.40;99.90
33149;DHT22;19506;51.040;3.856;2023-07-20T21:25:47;21.40;99.90
33149;DHT22;19506;51.040;3.856;2023-07-20T21:28:13;21.10;99.90
33149;DHT22;19506;51.040;3.856;2023-07-20T21:30:40;21.10;99.90
33149;DHT22;19506;51.040;3.856;2023-07-20T21:33:07;21.00;99.90
33149;DHT22;19506;51.040;3.856;2023-07-20T21:35:35;20.90;99.90
33149;DHT22;19506;51.040;3.856;2023-07-20T21:38:01;20.90;99.90
33149;DHT22;19506;51.040;3.856;2023-07-20T21:40:27;20.90;99.90
33149;DHT22;19506;51.040;3.856;2023-07-20T21:42:52;20.90;99.90
33149;DHT22;19506;51.040;3.856;2023-07-20T21:45:18;20.80;99.90
33149;DHT22;19506;51.040;3.856;2023-07-20T21:47:44;20.80;99.90
33149;DHT22;19506;51.040;3.856;2023-07-20T21:50:10;20.80;99.90
33149;DHT22;19506;51.040;3.856;2023-07-20T21:52:36;20.70;99.90
33149;DHT22;19506;51.040;3.856;2023-07-20T21:55:02;20.70;99.90
33149;DHT22;19506;51.040;3.856;2023-07-20T21:57:28;20.70;99.90
33149;DHT22;19506;51.040;3.856;2023-07-20T21:59:54;20.70;99.90
33149;DHT22;19506;51.040;3.856;2023-07-20T22:07:11;20.70;99.90
